Terminal Aerodrome Forecast
Issued by NWS

Home | Current Version | Previous Version | Text Only | Print | Product List | Glossary Off
Versions: 1 2 3 4 5 6 7 8 9 10 11 12 13

389
FTUS43 KMPX 201735
TAFAXN
TAF
KAXN 201735Z 2018/2118 36005KT P6SM BKN100
     FM210200 31007KT P6SM FEW250
     FM210900 34010KT P6SM FEW250=

USA.gov is the U.S. government's official web portal to all federal, state and local government web resources and services.